Time;durP1;ratioP1;P1;durP2;ratioP2;P2;SDS_P1;SDS_P2;PMS_P1;PMS_P2;Temp;Humidity;BMP_temperature;BMP_pressure;BME280_temperature;BME280_humidity;BME280_pressure;Samples;Min_cycle;Max_cycle;Signal;HPM_P1;HPM_P2
2022/11/15 00:00:07;;;;;;;;;2.00;2.00;;;;;;;;5014079;28;46197;-75
2022/11/15 00:02:33;;;;;;;;;4.00;4.00;;;;;;;;5013677;28;45401;-74
2022/11/15 00:04:58;;;;;;;;;3.67;3.00;;;;;;;;5013773;28;45412;-81
2022/11/15 00:07:23;;;;;;;;;7.33;4.00;;;;;;;;5020230;28;45745;-79
2022/11/15 00:09:48;;;;;;;;;6.33;3.67;;;;;;;;5015948;28;45479;-78
2022/11/15 00:12:14;;;;;;;;;5.33;3.67;;;;;;;;5007875;28;45496;-78
2022/11/15 00:14:39;;;;;;;;;5.00;3.00;;;;;;;;5014161;28;46811;-79
2022/11/15 00:17:04;;;;;;;;;5.33;5.33;;;;;;;;5015030;28;45296;-79
2022/11/15 00:19:30;;;;;;;;;3.67;3.00;;;;;;;;5001899;28;45505;-78
2022/11/15 00:21:55;;;;;;;;;6.33;4.33;;;;;;;;5015384;28;45520;-78
2022/11/15 00:24:20;;;;;;;;;3.67;3.67;;;;;;;;5013361;28;46593;-78
2022/11/15 00:26:45;;;;;;;;;3.33;3.00;;;;;;;;5014709;28;46197;-78
2022/11/15 00:29:11;;;;;;;;;4.67;3.67;;;;;;;;5014080;28;45695;-79
2022/11/15 00:31:36;;;;;;;;;6.00;5.00;;;;;;;;5015954;28;45297;-78
2022/11/15 00:34:01;;;;;;;;;2.00;2.00;;;;;;;;5022253;28;45394;-78
2022/11/15 00:36:27;;;;;;;;;3.00;3.00;;;;;;;;5013544;28;45323;-79
2022/11/15 00:38:52;;;;;;;;;3.00;3.00;;;;;;;;5014849;28;47340;-79
2022/11/15 00:41:17;;;;;;;;;2.67;2.33;;;;;;;;5018991;28;45458;-79
2022/11/15 00:43:43;;;;;;;;;5.00;3.00;;;;;;;;5016832;28;45602;-79
2022/11/15 00:46:09;;;;;;;;;3.00;3.00;;;;;;;;5017403;28;45709;-79
2022/11/15 00:48:35;;;;;;;;;3.00;2.33;;;;;;;;5019894;28;45354;-78
2022/11/15 00:51:00;;;;;;;;;2.33;2.33;;;;;;;;5036479;28;45830;-79
2022/11/15 00:53:26;;;;;;;;;1.67;1.67;;;;;;;;5036914;28;45484;-79
2022/11/15 00:55:51;;;;;;;;;2.67;1.67;;;;;;;;5038779;28;45326;-79
2022/11/15 00:58:16;;;;;;;;;2.00;2.00;;;;;;;;5038366;28;46265;-79
2022/11/15 01:00:42;;;;;;;;;1.67;1.67;;;;;;;;5037845;28;45385;-78
2022/11/15 01:03:07;;;;;;;;;2.00;2.00;;;;;;;;5036110;28;45461;-79
2022/11/15 01:05:32;;;;;;;;;1.00;1.00;;;;;;;;5020913;28;45441;-78
2022/11/15 01:07:58;;;;;;;;;4.33;1.67;;;;;;;;5038521;28;46119;-79
2022/11/15 01:10:23;;;;;;;;;1.67;1.67;;;;;;;;5037157;28;45409;-79
2022/11/15 01:12:49;;;;;;;;;2.33;1.67;;;;;;;;5023985;28;45595;-79
2022/11/15 01:15:15;;;;;;;;;1.67;1.00;;;;;;;;5039327;28;45468;-73
2022/11/15 01:17:41;;;;;;;;;2.67;1.33;;;;;;;;5020293;28;46389;-73
2022/11/15 01:20:06;;;;;;;;;2.33;2.33;;;;;;;;5038786;28;45287;-73
2022/11/15 01:22:32;;;;;;;;;1.33;1.33;;;;;;;;5038256;28;45294;-73
2022/11/15 01:24:57;;;;;;;;;3.00;2.00;;;;;;;;5036394;28;45809;-73
2022/11/15 01:27:22;;;;;;;;;1.00;1.00;;;;;;;;5036050;28;45582;-73
2022/11/15 01:29:48;;;;;;;;;1.00;1.00;;;;;;;;5037706;28;45477;-73
2022/11/15 01:32:13;;;;;;;;;0.67;0.67;;;;;;;;5035923;28;45414;-73
2022/11/15 01:34:39;;;;;;;;;2.67;0.67;;;;;;;;5020504;28;45390;-74
2022/11/15 01:37:04;;;;;;;;;2.00;1.33;;;;;;;;5032019;28;45428;-73
2022/11/15 01:39:29;;;;;;;;;2.00;1.00;;;;;;;;5002257;28;45714;-73
2022/11/15 01:41:55;;;;;;;;;2.33;1.33;;;;;;;;5020096;28;45472;-74
2022/11/15 01:44:40;;;;;;;;;3.00;2.00;;;;;;;;5041435;28;45413;-73
2022/11/15 01:47:09;;;;;;;;;1.00;1.00;;;;;;;;5035619;28;46144;-73
2022/11/15 01:49:37;;;;;;;;;3.00;1.00;;;;;;;;5013957;28;45539;-73
2022/11/15 01:52:05;;;;;;;;;2.67;1.67;;;;;;;;5014609;28;45509;-73
2022/11/15 01:54:30;;;;;;;;;3.00;2.00;;;;;;;;5012877;28;45682;-73
2022/11/15 01:56:58;;;;;;;;;1.00;1.00;;;;;;;;5015075;28;45441;-73
2022/11/15 01:59:23;;;;;;;;;2.00;2.00;;;;;;;;5012842;28;45554;-73
2022/11/15 02:01:48;;;;;;;;;1.00;1.00;;;;;;;;5013078;28;45540;-73
2022/11/15 02:04:21;;;;;;;;;2.00;2.00;;;;;;;;5014313;28;45554;-73
2022/11/15 02:06:46;;;;;;;;;1.00;1.00;;;;;;;;5018617;28;46001;-73
2022/11/15 02:09:12;;;;;;;;;1.67;1.67;;;;;;;;5019404;28;45638;-73
2022/11/15 02:11:38;;;;;;;;;3.67;2.00;;;;;;;;5013859;28;45740;-73
2022/11/15 02:14:04;;;;;;;;;2.00;1.33;;;;;;;;5017111;28;45425;-73
2022/11/15 02:16:43;;;;;;;;;3.00;2.00;;;;;;;;5016844;28;45443;-73
2022/11/15 02:19:17;;;;;;;;;2.00;1.00;;;;;;;;5015949;28;45365;-73
2022/11/15 02:22:03;;;;;;;;;5.33;1.00;;;;;;;;5013158;28;47003;-73
2022/11/15 02:24:34;;;;;;;;;1.67;1.67;;;;;;;;5003877;28;45616;-73
2022/11/15 02:27:00;;;;;;;;;2.00;2.00;;;;;;;;5015411;28;46219;-74
2022/11/15 02:29:37;;;;;;;;;2.00;1.00;;;;;;;;5015126;28;45349;-73
2022/11/15 02:32:15;;;;;;;;;2.67;1.00;;;;;;;;5016776;28;45489;-73
2022/11/15 02:34:49;;;;;;;;;1.00;1.00;;;;;;;;5015326;28;45588;-74
2022/11/15 02:37:28;;;;;;;;;1.00;1.00;;;;;;;;5016171;28;46426;-73
2022/11/15 02:40:12;;;;;;;;;3.67;1.00;;;;;;;;5015322;28;46156;-74
2022/11/15 02:45:32;;;;;;;;;2.00;2.00;;;;;;;;5012363;28;45632;-74
2022/11/15 02:47:58;;;;;;;;;0.00;0.00;;;;;;;;5015547;28;46330;-74
2022/11/15 02:50:27;;;;;;;;;2.00;2.00;;;;;;;;5018734;28;45585;-74
2022/11/15 02:52:52;;;;;;;;;3.67;2.00;;;;;;;;5036917;28;45420;-74
2022/11/15 02:55:26;;;;;;;;;3.33;2.33;;;;;;;;5036826;28;45373;-74
2022/11/15 02:57:57;;;;;;;;;5.00;2.00;;;;;;;;5035850;28;47210;-74
2022/11/15 03:00:22;;;;;;;;;0.00;0.00;;;;;;;;5038463;28;45545;-74
2022/11/15 03:02:57;;;;;;;;;1.67;1.67;;;;;;;;5017094;28;45540;-74
2022/11/15 03:05:44;;;;;;;;;3.00;3.00;;;;;;;;5045893;28;45440;-74
2022/11/15 03:08:15;;;;;;;;;2.67;2.00;;;;;;;;5017587;28;46137;-74
2022/11/15 03:10:43;;;;;;;;;2.00;2.00;;;;;;;;5037150;28;45295;-74
2022/11/15 03:13:17;;;;;;;;;2.00;2.00;;;;;;;;5025280;28;45460;-74
2022/11/15 03:15:52;;;;;;;;;2.00;2.00;;;;;;;;5036106;28;45355;-74
2022/11/15 03:18:36;;;;;;;;;2.00;2.00;;;;;;;;5035933;28;45354;-74
2022/11/15 03:21:04;;;;;;;;;4.33;3.00;;;;;;;;5034217;28;45639;-74
2022/11/15 03:23:30;;;;;;;;;4.33;3.00;;;;;;;;5032352;28;45547;-74
2022/11/15 03:25:58;;;;;;;;;3.00;3.00;;;;;;;;5042522;28;45474;-74
2022/11/15 03:28:26;;;;;;;;;3.33;2.00;;;;;;;;5035172;28;45378;-74
2022/11/15 03:30:52;;;;;;;;;2.00;2.00;;;;;;;;5034429;28;46138;-74
2022/11/15 03:33:19;;;;;;;;;3.00;3.00;;;;;;;;5017569;28;46520;-74
2022/11/15 03:35:46;;;;;;;;;3.00;3.00;;;;;;;;5018467;28;45559;-74
2022/11/15 03:38:29;;;;;;;;;2.67;1.00;;;;;;;;5013724;28;46733;-74
2022/11/15 03:40:59;;;;;;;;;0.67;0.00;;;;;;;;5036696;28;45408;-74
2022/11/15 03:43:24;;;;;;;;;3.00;2.00;;;;;;;;5035531;28;45403;-74
2022/11/15 03:45:53;;;;;;;;;2.67;2.67;;;;;;;;5036188;28;45493;-74
2022/11/15 03:48:26;;;;;;;;;2.00;2.00;;;;;;;;5035714;28;46387;-74
2022/11/15 03:50:52;;;;;;;;;2.67;2.00;;;;;;;;4998363;28;45367;-74
2022/11/15 03:53:17;;;;;;;;;4.33;2.00;;;;;;;;5016260;28;45386;-74
2022/11/15 03:55:43;;;;;;;;;2.33;2.33;;;;;;;;5016907;28;45393;-74
2022/11/15 03:58:08;;;;;;;;;2.33;2.00;;;;;;;;5015679;28;46282;-74
2022/11/15 04:00:33;;;;;;;;;3.00;3.00;;;;;;;;5015241;28;45457;-74
2022/11/15 04:02:59;;;;;;;;;3.33;2.33;;;;;;;;4997309;28;45607;-74
2022/11/15 04:05:24;;;;;;;;;2.00;2.00;;;;;;;;5015947;28;45375;-74
2022/11/15 04:07:49;;;;;;;;;3.00;2.00;;;;;;;;5017442;28;47128;-74
2022/11/15 04:10:15;;;;;;;;;2.67;2.67;;;;;;;;5016579;28;45443;-74
2022/11/15 04:12:42;;;;;;;;;4.00;2.33;;;;;;;;5015607;28;45734;-74
2022/11/15 04:15:10;;;;;;;;;5.00;2.00;;;;;;;;4997683;28;45529;-79
2022/11/15 04:17:38;;;;;;;;;2.33;2.33;;;;;;;;5015811;28;45453;-79
2022/11/15 04:25:31;;;;;;;;;1.67;1.67;;;;;;;;5013673;28;45351;-79
2022/11/15 04:27:57;;;;;;;;;2.00;2.00;;;;;;;;5004109;28;46382;-79
2022/11/15 04:30:22;;;;;;;;;2.67;1.00;;;;;;;;5014985;28;45427;-79
2022/11/15 04:32:47;;;;;;;;;2.33;2.00;;;;;;;;5011820;28;45508;-79
2022/11/15 04:35:12;;;;;;;;;2.00;2.00;;;;;;;;5014460;28;45525;-79
2022/11/15 04:37:37;;;;;;;;;2.33;2.33;;;;;;;;5014675;28;46262;-79
2022/11/15 04:40:03;;;;;;;;;3.00;3.00;;;;;;;;4992343;28;47040;-79
2022/11/15 04:42:28;;;;;;;;;1.00;1.00;;;;;;;;5015361;28;45418;-79
2022/11/15 04:44:54;;;;;;;;;2.33;2.33;;;;;;;;5015090;28;45398;-79
2022/11/15 04:47:19;;;;;;;;;1.00;1.00;;;;;;;;5015748;28;45766;-79
2022/11/15 04:49:45;;;;;;;;;4.33;2.33;;;;;;;;5026047;28;45310;-78
2022/11/15 04:52:10;;;;;;;;;2.67;2.67;;;;;;;;5035134;28;45757;-79
2022/11/15 04:54:35;;;;;;;;;4.00;3.00;;;;;;;;5030830;28;47008;-79
2022/11/15 04:57:00;;;;;;;;;4.67;2.00;;;;;;;;5033418;28;45720;-79
2022/11/15 04:59:26;;;;;;;;;2.33;2.00;;;;;;;;5033731;28;45461;-79
2022/11/15 05:01:51;;;;;;;;;2.00;2.00;;;;;;;;5032120;28;45663;-79
2022/11/15 05:04:19;;;;;;;;;2.33;2.33;;;;;;;;5031660;28;45471;-79
2022/11/15 05:06:47;;;;;;;;;3.00;3.00;;;;;;;;5033643;28;46145;-79
2022/11/15 05:09:13;;;;;;;;;2.00;2.00;;;;;;;;5016151;28;45647;-79
2022/11/15 05:11:38;;;;;;;;;2.00;2.00;;;;;;;;5033150;28;45571;-79
2022/11/15 05:14:04;;;;;;;;;2.00;2.00;;;;;;;;5034119;28;45415;-79
2022/11/15 05:16:29;;;;;;;;;2.00;2.00;;;;;;;;5035090;28;45462;-79
2022/11/15 05:18:54;;;;;;;;;5.00;3.67;;;;;;;;5033558;28;45394;-78
2022/11/15 05:21:20;;;;;;;;;3.67;2.67;;;;;;;;5029498;28;46113;-79
2022/11/15 05:23:45;;;;;;;;;4.00;1.67;;;;;;;;5015257;28;45688;-79
2022/11/15 05:26:11;;;;;;;;;3.00;3.00;;;;;;;;5034506;28;46005;-79
2022/11/15 05:28:36;;;;;;;;;2.00;1.00;;;;;;;;5018838;28;45532;-79
2022/11/15 05:31:01;;;;;;;;;3.00;3.00;;;;;;;;5031858;28;45807;-78
2022/11/15 05:33:27;;;;;;;;;3.00;3.00;;;;;;;;5035149;28;45587;-79
2022/11/15 05:35:58;;;;;;;;;5.00;2.00;;;;;;;;5039425;28;46136;-79
2022/11/15 05:38:23;;;;;;;;;5.00;3.00;;;;;;;;5037266;28;45524;-79
2022/11/15 05:40:49;;;;;;;;;1.00;1.00;;;;;;;;5036675;28;45483;-79
2022/11/15 05:43:15;;;;;;;;;3.00;3.00;;;;;;;;5036189;28;45516;-79
2022/11/15 05:45:40;;;;;;;;;3.00;2.00;;;;;;;;5036966;28;46433;-79
2022/11/15 05:48:07;;;;;;;;;3.00;3.00;;;;;;;;5033880;28;45498;-79
2022/11/15 05:50:33;;;;;;;;;4.00;3.00;;;;;;;;5037841;28;45325;-80
2022/11/15 05:53:00;;;;;;;;;2.67;2.00;;;;;;;;5016592;28;45446;-80
2022/11/15 05:55:25;;;;;;;;;4.33;2.00;;;;;;;;5015613;28;46835;-79
2022/11/15 05:57:50;;;;;;;;;2.00;2.00;;;;;;;;5036019;28;45456;-79
2022/11/15 06:00:15;;;;;;;;;4.33;3.00;;;;;;;;5037369;28;45421;-79
2022/11/15 06:02:41;;;;;;;;;3.00;3.00;;;;;;;;5030787;28;45385;-78
2022/11/15 06:05:06;;;;;;;;;4.00;3.33;;;;;;;;5015473;28;48125;-78
2022/11/15 06:07:31;;;;;;;;;3.00;3.00;;;;;;;;5017426;28;45502;-85
2022/11/15 06:12:34;;;;;;;;;3.33;3.33;;;;;;;;5301045;22;46265;-81
2022/11/15 06:15:00;;;;;;;;;4.00;4.00;;;;;;;;5503075;22;45499;-80
2022/11/15 06:17:25;;;;;;;;;6.33;4.00;;;;;;;;5016111;28;45704;-82
2022/11/15 06:19:50;;;;;;;;;5.00;4.67;;;;;;;;5064293;22;45447;-73
2022/11/15 06:22:15;;;;;;;;;3.00;3.00;;;;;;;;5066199;27;46884;-75
2022/11/15 06:24:41;;;;;;;;;6.00;4.00;;;;;;;;5066283;27;45648;-75
2022/11/15 06:27:06;;;;;;;;;5.00;4.00;;;;;;;;5061858;27;46689;-76
2022/11/15 06:29:31;;;;;;;;;4.00;3.00;;;;;;;;5065391;27;46145;-78
2022/11/15 06:31:56;;;;;;;;;4.00;3.00;;;;;;;;5068855;27;45570;-79
2022/11/15 06:34:21;;;;;;;;;4.00;3.00;;;;;;;;5064634;27;47648;-80
2022/11/15 06:36:47;;;;;;;;;4.67;4.00;;;;;;;;5043460;27;45645;-79
2022/11/15 06:39:12;;;;;;;;;4.00;4.00;;;;;;;;5057995;28;45455;-79
2022/11/15 06:41:38;;;;;;;;;3.67;3.67;;;;;;;;5056934;27;45907;-80
2022/11/15 06:44:03;;;;;;;;;6.33;5.00;;;;;;;;5055715;27;47471;-81
2022/11/15 06:46:28;;;;;;;;;3.33;3.33;;;;;;;;5074953;27;45530;-80
2022/11/15 06:48:53;;;;;;;;;4.00;4.00;;;;;;;;5075763;27;46134;-79
2022/11/15 06:51:19;;;;;;;;;5.00;5.00;;;;;;;;5078015;27;45419;-82
2022/11/15 06:53:44;;;;;;;;;5.67;4.00;;;;;;;;5074743;27;46095;-81
2022/11/15 06:56:10;;;;;;;;;3.67;3.67;;;;;;;;5067791;27;45473;-82
2022/11/15 06:58:35;;;;;;;;;5.00;5.00;;;;;;;;5060377;27;45500;-80
2022/11/15 07:01:01;;;;;;;;;5.00;5.00;;;;;;;;5058082;28;45710;-80
2022/11/15 07:03:26;;;;;;;;;7.33;5.00;;;;;;;;5075498;27;45495;-81
2022/11/15 07:05:56;;;;;;;;;4.33;4.33;;;;;;;;5058042;27;46986;-78
2022/11/15 07:08:22;;;;;;;;;4.00;4.00;;;;;;;;5072806;27;45585;-82
2022/11/15 07:10:47;;;;;;;;;4.67;4.67;;;;;;;;5068198;27;45547;-83
2022/11/15 07:13:12;;;;;;;;;5.67;5.00;;;;;;;;5067977;27;46464;-77
2022/11/15 07:15:37;;;;;;;;;8.33;4.00;;;;;;;;5045788;27;45579;-81
2022/11/15 07:18:02;;;;;;;;;5.67;4.00;;;;;;;;5057101;27;45556;-86
2022/11/15 07:20:28;;;;;;;;;4.33;3.00;;;;;;;;5067643;27;45600;-87
2022/11/15 07:22:59;;;;;;;;;5.00;4.00;;;;;;;;5058521;27;47274;-89
2022/11/15 07:25:24;;;;;;;;;6.33;5.00;;;;;;;;5060131;28;46149;-82
2022/11/15 07:27:56;;;;;;;;;4.00;3.67;;;;;;;;5078661;27;45227;-83
2022/11/15 07:30:22;;;;;;;;;3.00;3.00;;;;;;;;5072654;27;45525;-83
2022/11/15 07:32:47;;;;;;;;;3.00;3.00;;;;;;;;5077250;27;45932;-83
2022/11/15 07:35:12;;;;;;;;;3.67;3.67;;;;;;;;5085748;27;45495;-83
2022/11/15 07:37:37;;;;;;;;;3.67;3.67;;;;;;;;5078842;27;45487;-83
2022/11/15 07:40:03;;;;;;;;;3.33;3.00;;;;;;;;5076076;28;45432;-83
2022/11/15 07:45:14;;;;;;;;;6.33;3.33;;;;;;;;5076174;27;45479;-83
2022/11/15 07:47:39;;;;;;;;;4.00;4.00;;;;;;;;5074193;27;45478;-82
2022/11/15 07:50:05;;;;;;;;;5.00;4.00;;;;;;;;5082411;27;45498;-87
2022/11/15 07:52:30;;;;;;;;;4.33;4.00;;;;;;;;5077650;27;46109;-78
2022/11/15 07:54:55;;;;;;;;;5.00;5.00;;;;;;;;5076169;27;45300;-78
2022/11/15 07:57:20;;;;;;;;;3.00;3.00;;;;;;;;5076688;28;45385;-79
2022/11/15 07:59:45;;;;;;;;;6.67;4.00;;;;;;;;5076311;27;45583;-77
2022/11/15 08:02:11;;;;;;;;;4.00;4.00;;;;;;;;5058438;28;47133;-75
2022/11/15 08:04:36;;;;;;;;;2.67;2.67;;;;;;;;5076602;28;45274;-76
2022/11/15 08:07:01;;;;;;;;;2.67;2.67;;;;;;;;5076237;28;45793;-77
2022/11/15 08:09:27;;;;;;;;;2.00;2.00;;;;;;;;5058785;28;45603;-81
2022/11/15 08:11:52;;;;;;;;;4.00;2.67;;;;;;;;5058130;28;48078;-77
2022/11/15 08:14:17;;;;;;;;;4.00;4.00;;;;;;;;5058040;28;45328;-78
2022/11/15 08:16:42;;;;;;;;;4.00;4.00;;;;;;;;5077000;28;45332;-74
2022/11/15 08:19:08;;;;;;;;;4.00;4.00;;;;;;;;5046948;28;45392;-74
2022/11/15 08:21:33;;;;;;;;;2.33;2.33;;;;;;;;5035910;28;45594;-74
2022/11/15 08:23:58;;;;;;;;;4.00;4.00;;;;;;;;5035467;28;45463;-74
2022/11/15 08:26:26;;;;;;;;;2.67;2.67;;;;;;;;5036276;28;45403;-74
2022/11/15 08:28:51;;;;;;;;;4.00;4.00;;;;;;;;5035196;28;45409;-74
2022/11/15 08:31:17;;;;;;;;;5.67;4.00;;;;;;;;5034802;28;48089;-74
2022/11/15 08:33:43;;;;;;;;;6.00;5.67;;;;;;;;5034279;28;45915;-74
2022/11/15 08:36:12;;;;;;;;;5.00;5.00;;;;;;;;5035307;28;45337;-74
2022/11/15 08:38:37;;;;;;;;;7.00;6.00;;;;;;;;5031830;28;45340;-74
2022/11/15 08:41:03;;;;;;;;;7.00;6.33;;;;;;;;5035304;28;45494;-74
2022/11/15 08:43:28;;;;;;;;;8.00;7.67;;;;;;;;5033700;28;45721;-73
2022/11/15 08:45:57;;;;;;;;;6.67;5.00;;;;;;;;5014688;28;45376;-72
2022/11/15 08:48:22;;;;;;;;;5.00;3.67;;;;;;;;5035200;28;45559;-72
2022/11/15 08:50:48;;;;;;;;;4.00;4.00;;;;;;;;5035401;28;45562;-73
2022/11/15 08:53:13;;;;;;;;;5.33;3.67;;;;;;;;5035673;28;45476;-73
2022/11/15 08:55:39;;;;;;;;;3.33;3.33;;;;;;;;5034523;28;45399;-73
2022/11/15 08:58:04;;;;;;;;;2.67;2.67;;;;;;;;5034661;28;45338;-73
2022/11/15 09:00:29;;;;;;;;;4.00;4.00;;;;;;;;5036228;28;46332;-73
2022/11/15 09:02:55;;;;;;;;;6.00;3.67;;;;;;;;5039223;28;45438;-73
2022/11/15 09:05:20;;;;;;;;;5.33;3.33;;;;;;;;5039334;28;45381;-73
2022/11/15 09:07:45;;;;;;;;;3.33;3.33;;;;;;;;5039232;28;45419;-73
2022/11/15 09:10:11;;;;;;;;;3.33;2.67;;;;;;;;5038907;28;45302;-73
2022/11/15 09:12:36;;;;;;;;;3.67;3.67;;;;;;;;5037769;28;45347;-73
2022/11/15 09:15:01;;;;;;;;;3.33;3.33;;;;;;;;5039440;28;45515;-75
2022/11/15 09:17:27;;;;;;;;;3.67;2.67;;;;;;;;5038002;28;45626;-75
2022/11/15 09:19:52;;;;;;;;;3.00;3.00;;;;;;;;5037364;28;47227;-76
2022/11/15 09:22:17;;;;;;;;;2.00;2.00;;;;;;;;5037693;28;45361;-75
2022/11/15 09:24:42;;;;;;;;;5.00;3.00;;;;;;;;5039043;28;45435;-75
2022/11/15 09:27:08;;;;;;;;;4.33;3.67;;;;;;;;5039167;28;45402;-75
2022/11/15 09:29:33;;;;;;;;;4.33;4.00;;;;;;;;5038957;28;46062;-75
2022/11/15 09:31:58;;;;;;;;;1.67;1.67;;;;;;;;5038840;28;45444;-75
2022/11/15 09:34:24;;;;;;;;;3.00;3.00;;;;;;;;5037938;28;46443;-75
2022/11/15 09:36:49;;;;;;;;;5.33;3.00;;;;;;;;5039071;28;45387;-75
2022/11/15 09:39:14;;;;;;;;;2.67;2.67;;;;;;;;5038354;28;45590;-75
2022/11/15 09:41:45;;;;;;;;;2.67;2.67;;;;;;;;5038439;28;45499;-75
2022/11/15 09:44:29;;;;;;;;;3.67;3.67;;;;;;;;5038725;28;45222;-76
2022/11/15 09:47:13;;;;;;;;;3.33;2.00;;;;;;;;5038861;28;45504;-75
2022/11/15 09:49:38;;;;;;;;;3.33;2.00;;;;;;;;5038548;28;45772;-75
2022/11/15 09:52:03;;;;;;;;;2.33;2.33;;;;;;;;5037029;28;45343;-75
2022/11/15 09:54:33;;;;;;;;;1.67;1.67;;;;;;;;5036947;28;45423;-75
2022/11/15 09:57:20;;;;;;;;;3.00;2.00;;;;;;;;5024390;28;45438;-75
2022/11/15 09:59:51;;;;;;;;;3.67;2.00;;;;;;;;5038227;28;46065;-75
2022/11/15 10:02:35;;;;;;;;;3.33;1.33;;;;;;;;5038525;28;45454;-76
2022/11/15 10:05:01;;;;;;;;;2.00;2.00;;;;;;;;5036988;28;45477;-76
2022/11/15 10:07:55;;;;;;;;;1.00;0.67;;;;;;;;5038488;28;45492;-75
2022/11/15 10:10:21;;;;;;;;;2.67;2.67;;;;;;;;5021138;28;45533;-75
2022/11/15 10:12:49;;;;;;;;;4.00;3.00;;;;;;;;5038019;28;45373;-75
2022/11/15 10:15:15;;;;;;;;;6.00;2.67;;;;;;;;5037191;28;45484;-76
2022/11/15 10:17:40;;;;;;;;;2.67;2.67;;;;;;;;5037080;28;45460;-75
2022/11/15 10:20:11;;;;;;;;;2.67;2.67;;;;;;;;5070068;28;46255;-75
2022/11/15 10:22:59;;;;;;;;;1.67;1.67;;;;;;;;5078361;28;45494;-76
2022/11/15 10:25:26;;;;;;;;;1.67;1.67;;;;;;;;5065168;28;45571;-75
2022/11/15 10:27:56;;;;;;;;;1.67;1.67;;;;;;;;5078798;28;45447;-76
2022/11/15 10:30:21;;;;;;;;;5.33;5.33;;;;;;;;5078118;28;46133;-75
2022/11/15 10:32:47;;;;;;;;;4.33;3.00;;;;;;;;5060129;28;45387;-75
2022/11/15 10:35:17;;;;;;;;;2.67;2.67;;;;;;;;5078289;27;45328;-76
2022/11/15 10:37:42;;;;;;;;;3.00;1.67;;;;;;;;5078546;28;45507;-75
2022/11/15 10:40:23;;;;;;;;;2.00;2.00;;;;;;;;5077796;28;46180;-75
2022/11/15 10:43:04;;;;;;;;;3.33;3.33;;;;;;;;5059994;28;46751;-75
2022/11/15 10:45:30;;;;;;;;;3.33;3.33;;;;;;;;5060034;28;45372;-75
2022/11/15 10:48:19;;;;;;;;;2.67;2.67;;;;;;;;5078535;28;45298;-76
2022/11/15 10:50:45;;;;;;;;;2.33;2.33;;;;;;;;5066923;28;45677;-76
2022/11/15 10:53:16;;;;;;;;;2.00;2.00;;;;;;;;5077665;28;45554;-75
2022/11/15 10:55:46;;;;;;;;;3.67;1.67;;;;;;;;5078058;28;45406;-75
2022/11/15 10:58:29;;;;;;;;;2.33;2.33;;;;;;;;5078062;28;45469;-76
2022/11/15 11:00:55;;;;;;;;;2.00;2.00;;;;;;;;5078023;28;47461;-76
2022/11/15 11:03:35;;;;;;;;;2.67;2.67;;;;;;;;5077810;28;45487;-76
2022/11/15 11:06:14;;;;;;;;;2.33;2.33;;;;;;;;5077470;28;45424;-75
2022/11/15 11:08:39;;;;;;;;;2.67;2.67;;;;;;;;5060036;28;45247;-76
2022/11/15 11:11:05;;;;;;;;;2.33;2.33;;;;;;;;5059388;28;48290;-76
2022/11/15 11:13:35;;;;;;;;;4.00;2.67;;;;;;;;5077747;28;45408;-75
2022/11/15 11:16:00;;;;;;;;;4.00;4.00;;;;;;;;5077463;28;45484;-76
2022/11/15 11:18:46;;;;;;;;;4.33;3.67;;;;;;;;5078012;28;45412;-76
2022/11/15 11:21:18;;;;;;;;;3.00;3.00;;;;;;;;4975068;28;46299;-76
2022/11/15 11:23:52;;;;;;;;;3.67;3.67;;;;;;;;4974741;28;45588;-76
2022/11/15 11:26:36;;;;;;;;;1.67;1.67;;;;;;;;4975717;28;45455;-76
2022/11/15 11:29:10;;;;;;;;;7.67;4.00;;;;;;;;4959215;28;45511;-77
2022/11/15 11:31:52;;;;;;;;;3.00;3.00;;;;;;;;4959013;28;47282;-78
2022/11/15 11:34:35;;;;;;;;;4.00;4.00;;;;;;;;4975236;28;45488;-82
2022/11/15 11:37:00;;;;;;;;;4.00;3.33;;;;;;;;4975711;28;45475;-78
2022/11/15 11:39:37;;;;;;;;;4.33;4.00;;;;;;;;4975525;28;45522;-78
2022/11/15 11:42:08;;;;;;;;;3.67;3.67;;;;;;;;4974869;28;45445;-77
2022/11/15 11:44:54;;;;;;;;;3.67;3.67;;;;;;;;4971510;28;45506;-76
2022/11/15 11:47:22;;;;;;;;;3.67;3.67;;;;;;;;4967493;28;45581;-75
2022/11/15 11:49:50;;;;;;;;;3.67;3.67;;;;;;;;4979901;28;45612;-77
2022/11/15 11:52:28;;;;;;;;;3.33;3.33;;;;;;;;4976661;28;46098;-76
2022/11/15 11:55:01;;;;;;;;;5.00;2.67;;;;;;;;4978586;28;45495;-77
2022/11/15 11:57:45;;;;;;;;;2.67;2.67;;;;;;;;4988525;28;45528;-77
2022/11/15 12:00:23;;;;;;;;;4.33;3.00;;;;;;;;5072531;28;45394;-78
2022/11/15 12:03:07;;;;;;;;;6.67;3.67;;;;;;;;5072036;28;46284;-77
2022/11/15 12:05:39;;;;;;;;;3.67;3.67;;;;;;;;5075312;28;45417;-78
2022/11/15 12:08:14;;;;;;;;;5.67;4.00;;;;;;;;5076052;28;45342;-78
2022/11/15 12:10:44;;;;;;;;;4.33;4.00;;;;;;;;5076023;27;45535;-78
2022/11/15 12:13:11;;;;;;;;;7.33;5.67;;;;;;;;5056201;28;45542;-77
2022/11/15 12:15:45;;;;;;;;;3.67;3.67;;;;;;;;5075330;28;45372;-78
2022/11/15 12:18:12;;;;;;;;;5.67;5.00;;;;;;;;5082716;27;45381;-77
2022/11/15 12:20:40;;;;;;;;;5.33;5.33;;;;;;;;5076158;28;45448;-79
2022/11/15 12:23:08;;;;;;;;;6.33;6.33;;;;;;;;5075861;27;45461;-78
2022/11/15 12:25:41;;;;;;;;;8.00;6.33;;;;;;;;5075459;27;45546;-78
2022/11/15 12:28:12;;;;;;;;;4.67;4.67;;;;;;;;5075368;28;45531;-77
2022/11/15 12:30:46;;;;;;;;;6.33;5.00;;;;;;;;5059006;28;45437;-77
2022/11/15 12:33:47;;;;;;;;;4.00;4.00;;;;;;;;5075937;27;48539;-77
2022/11/15 12:36:12;;;;;;;;;3.67;3.67;;;;;;;;5015469;28;45588;-77
2022/11/15 12:38:49;;;;;;;;;4.00;4.00;;;;;;;;4999550;28;45617;-77
2022/11/15 12:41:17;;;;;;;;;5.00;3.67;;;;;;;;5016194;28;45414;-76
2022/11/15 12:43:43;;;;;;;;;4.33;4.33;;;;;;;;5014929;28;45478;-76
2022/11/15 12:46:31;;;;;;;;;4.67;3.67;;;;;;;;5016051;28;45457;-76
2022/11/15 12:48:56;;;;;;;;;3.00;3.00;;;;;;;;5007837;28;45651;-76
2022/11/15 12:51:40;;;;;;;;;5.33;5.33;;;;;;;;5016743;28;45382;-76
2022/11/15 12:54:27;;;;;;;;;4.00;4.00;;;;;;;;5016073;28;45569;-76
2022/11/15 12:57:07;;;;;;;;;5.67;4.00;;;;;;;;4999017;28;45884;-76
2022/11/15 12:59:51;;;;;;;;;9.33;6.00;;;;;;;;5016180;28;45507;-74
2022/11/15 13:02:27;;;;;;;;;5.67;5.67;;;;;;;;5016153;28;45540;-77
2022/11/15 13:04:54;;;;;;;;;3.00;3.00;;;;;;;;5015848;28;45450;-76
2022/11/15 13:07:35;;;;;;;;;3.67;3.67;;;;;;;;5016648;28;45549;-76
2022/11/15 13:10:20;;;;;;;;;4.67;4.00;;;;;;;;5034587;28;45456;-76
2022/11/15 13:12:45;;;;;;;;;4.00;4.00;;;;;;;;5063965;27;45959;-76
2022/11/15 13:15:11;;;;;;;;;5.33;4.67;;;;;;;;5074852;27;45632;-75
2022/11/15 13:17:45;;;;;;;;;7.33;6.33;;;;;;;;5077269;28;45670;-76
2022/11/15 13:20:16;;;;;;;;;5.33;5.33;;;;;;;;5079045;27;45465;-75
2022/11/15 13:22:50;;;;;;;;;5.00;4.33;;;;;;;;5089641;27;45383;-75
2022/11/15 13:25:36;;;;;;;;;7.00;5.33;;;;;;;;5063623;27;46200;-75
2022/11/15 13:28:02;;;;;;;;;6.67;4.33;;;;;;;;4979524;28;45733;-75
2022/11/15 13:30:30;;;;;;;;;4.67;4.67;;;;;;;;4995891;28;45406;-75
2022/11/15 13:32:58;;;;;;;;;5.33;4.00;;;;;;;;4979708;28;45611;-76
2022/11/15 13:35:28;;;;;;;;;4.00;4.00;;;;;;;;4991766;28;45422;-76
2022/11/15 13:37:54;;;;;;;;;3.67;3.67;;;;;;;;4996037;28;45527;-75
2022/11/15 13:40:32;;;;;;;;;7.67;4.00;;;;;;;;4995744;28;45673;-75
2022/11/15 13:42:58;;;;;;;;;3.33;3.33;;;;;;;;4996181;28;45795;-75
2022/11/15 13:45:23;;;;;;;;;3.00;3.00;;;;;;;;4995351;28;46137;-75
2022/11/15 13:47:57;;;;;;;;;3.00;3.00;;;;;;;;4995813;28;45494;-75
2022/11/15 13:50:26;;;;;;;;;7.00;4.00;;;;;;;;4996106;28;45533;-75
2022/11/15 13:52:52;;;;;;;;;3.00;3.00;;;;;;;;4996149;28;45377;-75
2022/11/15 13:55:22;;;;;;;;;5.00;4.00;;;;;;;;4995524;28;46752;-76
2022/11/15 13:57:47;;;;;;;;;3.67;3.67;;;;;;;;4995617;28;45598;-75
2022/11/15 14:00:24;;;;;;;;;4.00;4.00;;;;;;;;4995745;28;45660;-75
2022/11/15 14:02:50;;;;;;;;;3.00;3.00;;;;;;;;4996235;28;45514;-75
2022/11/15 14:05:16;;;;;;;;;2.00;2.00;;;;;;;;5040995;27;45358;-76
2022/11/15 14:07:52;;;;;;;;;2.00;2.00;;;;;;;;5087246;27;45572;-75
2022/11/15 14:10:28;;;;;;;;;3.00;3.00;;;;;;;;5078426;28;45459;-76
2022/11/15 14:12:53;;;;;;;;;2.67;2.67;;;;;;;;5090049;27;45444;-75
2022/11/15 14:15:32;;;;;;;;;3.33;2.00;;;;;;;;5073003;27;45432;-75
2022/11/15 14:17:57;;;;;;;;;2.50;2.50;;;;;;;;5080122;27;45763;-75
2022/11/15 14:20:27;;;;;;;;;3.67;1.67;;;;;;;;5090619;27;45656;-75
2022/11/15 14:22:53;;;;;;;;;5.00;5.00;;;;;;;;5087417;27;45466;-75
2022/11/15 14:25:21;;;;;;;;;6.33;4.00;;;;;;;;5080681;27;46732;-75
2022/11/15 14:28:05;;;;;;;;;1.00;1.00;;;;;;;;5077719;27;45353;-75
2022/11/15 14:30:30;;;;;;;;;3.33;3.33;;;;;;;;5088324;27;45559;-75
2022/11/15 14:32:55;;;;;;;;;3.00;3.00;;;;;;;;5085813;27;45451;-75
2022/11/15 14:35:21;;;;;;;;;4.00;4.00;;;;;;;;5083585;27;46100;-75
2022/11/15 14:37:46;;;;;;;;;7.67;4.00;;;;;;;;5059417;28;45346;-75
2022/11/15 14:40:13;;;;;;;;;5.33;3.33;;;;;;;;5086385;27;45292;-75
2022/11/15 14:42:38;;;;;;;;;3.67;3.33;;;;;;;;5077789;28;45472;-74
2022/11/15 14:45:09;;;;;;;;;3.67;3.67;;;;;;;;5059943;27;48920;-75
2022/11/15 14:47:34;;;;;;;;;5.67;5.33;;;;;;;;5069973;28;46000;-75
2022/11/15 14:49:59;;;;;;;;;5.00;5.00;;;;;;;;5084070;27;45458;-75
2022/11/15 14:52:25;;;;;;;;;8.00;5.33;;;;;;;;5081200;27;45464;-75
2022/11/15 14:54:50;;;;;;;;;3.67;3.67;;;;;;;;5077672;27;45380;-75
2022/11/15 14:57:15;;;;;;;;;7.33;7.33;;;;;;;;5090672;27;45281;-75
2022/11/15 14:59:40;;;;;;;;;7.00;7.00;;;;;;;;5081442;27;45697;-75
2022/11/15 15:02:15;;;;;;;;;5.00;4.00;;;;;;;;5079246;27;45533;-74
2022/11/15 15:04:41;;;;;;;;;9.00;6.33;;;;;;;;5089011;27;46287;-75